首页
METAR-TAF:

METAR-TAF

机场 :

特倫頓空軍基地

特伦顿, 安大略省, 加拿大

纬度: 44-07N, 经度: 077-32W, 海拔: 85米

当前天气观测

该预报发布于11分钟前的16:00 UTC
风速10节,风向
温度 3°C
湿度 56%
气压 1023 hPa
能見度: 24.1公里
阴天层高于25000英尺

METAR: CYTR 131600Z 19010KT 15SM OVC250 03/M05 A3021 RMK CI8 SLP234

时间: 11:11 (16:11 UTC)

预报

该预报发布于4小时和41分钟前的11:30 UTC
预报有效从13日的 12点(UTC)到 14日的 12点(UTC)
风速5节,风向
能見度: 10公里
少量云层高于20000英尺
成为
从 13日的 14点(UTC)到 13日的 16点(UTC)
风速12节,风向,有时为22节阵风
多云层高于20000英尺
从 13日的 2000点(UTC)
风速8节,风向东南
能見度: 10公里
多云层高于20000英尺
从 14日的 0000点(UTC)
风速5节,风向
能見度: 10公里
多云层高于4000英尺
多云层高于12000英尺
从 14日的 0200点(UTC)
风速5节,风向东转东南
能見度: 8.0公里
多云层高于2000英尺
阴天层高于4000英尺
轻雾
短暂存在
从 14日的 02点(UTC)到 14日的 08点(UTC)
能見度: 3.2公里
阴天层高于1000英尺
小毛毛雨, 轻雾
从 14日的 0800点(UTC)
风速8节,风向东北
能見度: 4.8公里
阴天层高于800英尺
小雨, 轻雾

TAF: CYTR 131130Z 1312/1412 17005KT P6SM FEW200 BECMG 1314/1316 18012G22KT BKN200 FM132000 13008KT P6SM BKN200 FM140000 09005KT P6SM BKN040 BKN120 FM140200 12005KT 5SM BR BKN020 OVC040 TEMPO 1402/1408 2SM -DZ BR OVC010 FM140800 04008KT 3SM -RA BR OVC008 RMK NXT FCST BY 131800Z

超过4000个机场的气象观测和天气预报(METAR&TAF报告)。

可查询的气象台以黄色和红色小点在地图上表示。

将鼠标移到小点上方,可查看气象台名称。

然后点击查看天气观测和预报。

如需切换地图:点击带黑十字的绿色按钮放大地图;点击带横线的绿色按钮缩小地图;或者点击绿色箭头查看邻近地区的地图。


METAR-TAF: